Time;durP1;ratioP1;P1;durP2;ratioP2;P2;SDS_P1;SDS_P2;PMS_P1;PMS_P2;Temp;Humidity;BMP_temperature;BMP_pressure;BME280_temperature;BME280_humidity;BME280_pressure;Samples;Min_cycle;Max_cycle;Signal;HPM_P1;HPM_P2
2024/02/02 00:00:05;;;;;;;;;;;;;;;;;;5051860;28;19921;-64
2024/02/02 00:02:37;;;;;;;;;;;;;;;;;;5044299;28;19959;-64
2024/02/02 00:05:03;;;;;;;;;;;;;;;;;;5049235;28;19920;-63
2024/02/02 00:07:29;;;;;;;;;;;;;;;;;;5051839;28;19924;-63
2024/02/02 00:09:56;;;;;;;;;;;;;;;;;;5048862;28;19925;-63
2024/02/02 00:12:22;;;;;;;;;;;;;;;;;;5033486;28;19921;-63
2024/02/02 00:14:48;;;;;;;;;;;;;;;;;;5051240;28;19925;-63
2024/02/02 00:17:14;;;;;;;;;;;;;;;;;;5051552;28;19947;-63
2024/02/02 00:19:40;;;;;;;;;;;;;;;;;;5028489;28;20378;-63
2024/02/02 00:22:06;;;;;;;;;;;;;;;;;;5049445;28;19947;-64
2024/02/02 00:24:32;;;;;;;;;;;;;;;;;;5033265;28;19939;-64
2024/02/02 00:26:58;;;;;;;;;;;;;;;;;;5051447;28;19954;-64
2024/02/02 00:29:24;;;;;;;;;;;;;;;;;;5033405;28;20458;-61
2024/02/02 00:31:49;;;;;;;;;;;;;;;;;;5050322;28;19964;-62
2024/02/02 00:34:15;;;;;;;;;;;;;;;;;;5031480;28;19932;-62
2024/02/02 00:36:41;;;;;;;;;;;;;;;;;;5052374;28;19928;-62
2024/02/02 00:39:08;;;;;;;;;;;;;;;;;;5037663;28;19927;-62
2024/02/02 00:41:34;;;;;;;;;;;;;;;;;;5036198;28;19935;-62
2024/02/02 00:44:00;;;;;;;;;;;;;;;;;;5053814;28;19924;-63
2024/02/02 00:46:28;;;;;;;;;;;;;;;;;;5035531;28;19920;-62
2024/02/02 00:48:54;;;;;;;;;;;;;;;;;;5030943;28;20389;-62
2024/02/02 00:51:20;;;;;;;;;;;;;;;;;;5050707;28;19935;-63
2024/02/02 00:53:46;;;;;;;;;;;;;;;;;;5053137;28;20012;-62
2024/02/02 00:56:12;;;;;;;;;;;;;;;;;;5030846;28;20115;-63
2024/02/02 00:58:38;;;;;;;;;;;;;;;;;;5049574;28;19968;-62
2024/02/02 01:01:04;;;;;;;;;;;;;;;;;;5049316;28;19921;-63
2024/02/02 01:03:33;;;;;;;;;;;;;;;;;;5052822;28;19940;-62
2024/02/02 01:05:59;;;;;;;;;;;;;;;;;;5046887;28;19924;-62
2024/02/02 01:08:25;;;;;;;;;;;;;;;;;;5035099;28;19958;-62
2024/02/02 01:10:51;;;;;;;;;;;;;;;;;;5050698;28;20039;-63
2024/02/02 01:13:17;;;;;;;;;;;;;;;;;;5052976;28;20475;-63
2024/02/02 01:15:43;;;;;;;;;;;;;;;;;;5053013;28;20351;-63
2024/02/02 01:18:08;;;;;;;;;;;;;;;;;;5053284;28;19956;-63
2024/02/02 01:20:34;;;;;;;;;;;;;;;;;;5048483;28;19956;-63
2024/02/02 01:23:00;;;;;;;;;;;;;;;;;;5034866;28;20252;-63
2024/02/02 01:25:29;;;;;;;;;;;;;;;;;;5052962;28;20011;-63
2024/02/02 01:27:55;;;;;;;;;;;;;;;;;;5040160;28;19921;-62
2024/02/02 01:30:23;;;;;;;;;;;;;;;;;;5035680;28;19921;-62
2024/02/02 01:32:49;;;;;;;;;;;;;;;;;;5054650;28;19931;-62
2024/02/02 01:35:17;;;;;;;;;;;;;;;;;;5051781;28;22324;-62
2024/02/02 01:37:43;;;;;;;;;;;;;;;;;;5036278;28;19933;-62
2024/02/02 01:40:08;;;;;;;;;;;;;;;;;;5050855;28;20051;-63
2024/02/02 01:42:34;;;;;;;;;;;;;;;;;;5036369;28;20011;-62
2024/02/02 01:45:00;;;;;;;;;;;;;;;;;;5054221;28;19928;-62
2024/02/02 01:47:26;;;;;;;;;;;;;;;;;;5035998;28;20401;-62
2024/02/02 01:49:52;;;;;;;;;;;;;;;;;;5031697;28;19924;-62
2024/02/02 01:52:18;;;;;;;;;;;;;;;;;;5047333;28;19944;-62
2024/02/02 01:54:44;;;;;;;;;;;;;;;;;;5053888;28;20376;-63
2024/02/02 01:57:10;;;;;;;;;;;;;;;;;;5052481;28;20405;-63
2024/02/02 01:59:36;;;;;;;;;;;;;;;;;;5048788;28;20262;-63
2024/02/02 02:02:02;;;;;;;;;;;;;;;;;;5048246;28;19921;-63
2024/02/02 02:04:28;;;;;;;;;;;;;;;;;;5046201;28;19928;-63
2024/02/02 02:06:54;;;;;;;;;;;;;;;;;;5050841;28;19925;-63
2024/02/02 02:09:20;;;;;;;;;;;;;;;;;;5052866;28;20761;-63
2024/02/02 02:11:46;;;;;;;;;;;;;;;;;;5031877;28;19967;-63
2024/02/02 02:14:12;;;;;;;;;;;;;;;;;;5052711;28;19990;-62
2024/02/02 02:16:38;;;;;;;;;;;;;;;;;;5052889;28;19943;-62
2024/02/02 02:19:04;;;;;;;;;;;;;;;;;;5050734;28;19971;-62
2024/02/02 02:21:30;;;;;;;;;;;;;;;;;;5035580;28;20371;-63
2024/02/02 02:23:56;;;;;;;;;;;;;;;;;;5053600;28;19925;-63
2024/02/02 02:26:22;;;;;;;;;;;;;;;;;;5035682;28;19920;-63
2024/02/02 02:28:48;;;;;;;;;;;;;;;;;;5036349;28;19931;-63
2024/02/02 02:31:14;;;;;;;;;;;;;;;;;;5035393;28;19924;-62
2024/02/02 02:33:40;;;;;;;;;;;;;;;;;;5032821;28;19925;-64
2024/02/02 02:36:07;;;;;;;;;;;;;;;;;;5053467;28;19950;-64
2024/02/02 02:38:33;;;;;;;;;;;;;;;;;;5053390;28;20019;-64
2024/02/02 02:40:59;;;;;;;;;;;;;;;;;;5053639;28;19925;-64
2024/02/02 02:43:26;;;;;;;;;;;;;;;;;;5052942;28;20408;-63
2024/02/02 02:45:52;;;;;;;;;;;;;;;;;;5034743;28;19979;-64
2024/02/02 02:48:18;;;;;;;;;;;;;;;;;;5050223;28;20267;-63
2024/02/02 02:50:44;;;;;;;;;;;;;;;;;;5051723;28;20362;-63
2024/02/02 02:53:10;;;;;;;;;;;;;;;;;;5048757;28;20059;-64
2024/02/02 02:55:36;;;;;;;;;;;;;;;;;;5052784;28;20034;-62
2024/02/02 02:58:02;;;;;;;;;;;;;;;;;;5052701;28;19960;-63
2024/02/02 03:00:29;;;;;;;;;;;;;;;;;;5052255;28;20030;-63
2024/02/02 03:02:55;;;;;;;;;;;;;;;;;;5034563;28;19960;-63
2024/02/02 03:05:21;;;;;;;;;;;;;;;;;;5048974;28;20301;-63
2024/02/02 03:07:47;;;;;;;;;;;;;;;;;;5050050;28;19938;-63
2024/02/02 03:10:13;;;;;;;;;;;;;;;;;;5052764;28;20010;-63
2024/02/02 03:12:39;;;;;;;;;;;;;;;;;;5032253;28;19959;-63
2024/02/02 03:15:05;;;;;;;;;;;;;;;;;;5051893;28;19979;-63
2024/02/02 03:17:31;;;;;;;;;;;;;;;;;;5032931;28;22082;-63
2024/02/02 03:19:57;;;;;;;;;;;;;;;;;;5050902;28;19964;-64
2024/02/02 03:22:23;;;;;;;;;;;;;;;;;;5025154;28;19928;-64
2024/02/02 03:24:48;;;;;;;;;;;;;;;;;;5050308;28;19929;-63
2024/02/02 03:27:14;;;;;;;;;;;;;;;;;;5050723;28;19924;-63
2024/02/02 03:29:40;;;;;;;;;;;;;;;;;;5057284;28;19925;-63
2024/02/02 03:32:06;;;;;;;;;;;;;;;;;;5049953;28;19929;-63
2024/02/02 03:34:32;;;;;;;;;;;;;;;;;;5057804;28;19924;-63
2024/02/02 03:36:58;;;;;;;;;;;;;;;;;;5051075;28;19928;-63
2024/02/02 03:39:24;;;;;;;;;;;;;;;;;;5030527;28;19986;-62
2024/02/02 03:41:50;;;;;;;;;;;;;;;;;;5052064;28;20277;-62
2024/02/02 03:44:16;;;;;;;;;;;;;;;;;;5034372;28;20676;-62
2024/02/02 03:46:42;;;;;;;;;;;;;;;;;;5051965;28;19925;-62
2024/02/02 03:49:08;;;;;;;;;;;;;;;;;;5052103;28;20027;-62
2024/02/02 03:51:33;;;;;;;;;;;;;;;;;;5053462;28;20004;-62
2024/02/02 03:53:59;;;;;;;;;;;;;;;;;;5048004;28;19956;-62
2024/02/02 03:56:25;;;;;;;;;;;;;;;;;;5031368;28;19933;-62
2024/02/02 03:58:51;;;;;;;;;;;;;;;;;;5028960;28;20366;-62
2024/02/02 04:01:17;;;;;;;;;;;;;;;;;;5032109;28;19921;-62
2024/02/02 04:03:43;;;;;;;;;;;;;;;;;;5039101;28;19920;-63
2024/02/02 04:06:09;;;;;;;;;;;;;;;;;;5051733;28;19956;-63
2024/02/02 04:08:35;;;;;;;;;;;;;;;;;;5035761;28;19921;-63
2024/02/02 04:11:01;;;;;;;;;;;;;;;;;;5050924;28;20294;-63
2024/02/02 04:13:27;;;;;;;;;;;;;;;;;;5048138;28;19932;-63
2024/02/02 04:15:53;;;;;;;;;;;;;;;;;;5037776;28;20369;-63
2024/02/02 04:18:19;;;;;;;;;;;;;;;;;;5049477;28;19928;-63
2024/02/02 04:20:45;;;;;;;;;;;;;;;;;;5041915;28;20293;-63
2024/02/02 04:23:11;;;;;;;;;;;;;;;;;;5050808;28;19931;-63
2024/02/02 04:25:37;;;;;;;;;;;;;;;;;;5032718;28;19925;-63
2024/02/02 04:28:05;;;;;;;;;;;;;;;;;;5051572;28;19921;-64
2024/02/02 04:30:32;;;;;;;;;;;;;;;;;;5046650;28;20000;-63
2024/02/02 04:32:58;;;;;;;;;;;;;;;;;;5040057;28;20890;-63
2024/02/02 04:35:24;;;;;;;;;;;;;;;;;;5033926;28;20004;-63
2024/02/02 04:37:50;;;;;;;;;;;;;;;;;;5050083;28;19925;-63
2024/02/02 04:40:16;;;;;;;;;;;;;;;;;;5050562;28;20294;-63
2024/02/02 04:42:44;;;;;;;;;;;;;;;;;;5045980;28;19931;-63
2024/02/02 04:45:10;;;;;;;;;;;;;;;;;;5032104;28;20388;-63
2024/02/02 04:47:36;;;;;;;;;;;;;;;;;;5030322;28;19920;-63
2024/02/02 04:50:02;;;;;;;;;;;;;;;;;;5045923;28;19975;-63
2024/02/02 04:52:28;;;;;;;;;;;;;;;;;;5050975;28;19932;-63
2024/02/02 04:54:55;;;;;;;;;;;;;;;;;;5050559;28;19921;-61
2024/02/02 04:57:21;;;;;;;;;;;;;;;;;;5032461;28;19929;-64
2024/02/02 04:59:47;;;;;;;;;;;;;;;;;;5051156;28;20436;-64
2024/02/02 05:02:13;;;;;;;;;;;;;;;;;;5032756;28;19928;-64
2024/02/02 05:04:40;;;;;;;;;;;;;;;;;;5029860;28;19932;-64
2024/02/02 05:07:06;;;;;;;;;;;;;;;;;;5050810;28;19920;-64
2024/02/02 05:09:32;;;;;;;;;;;;;;;;;;5050881;28;19959;-64
2024/02/02 05:11:58;;;;;;;;;;;;;;;;;;5034697;28;20379;-64
2024/02/02 05:14:24;;;;;;;;;;;;;;;;;;5048515;28;19921;-64
2024/02/02 05:16:50;;;;;;;;;;;;;;;;;;5049946;28;19932;-61
2024/02/02 05:19:16;;;;;;;;;;;;;;;;;;5043414;28;19921;-62
2024/02/02 05:21:42;;;;;;;;;;;;;;;;;;5036876;28;20268;-62
2024/02/02 05:24:08;;;;;;;;;;;;;;;;;;5035459;28;19964;-62
2024/02/02 05:26:34;;;;;;;;;;;;;;;;;;5037755;28;19920;-62
2024/02/02 05:29:00;;;;;;;;;;;;;;;;;;5054563;28;19925;-62
2024/02/02 05:31:26;;;;;;;;;;;;;;;;;;5048061;28;19927;-62
2024/02/02 05:33:52;;;;;;;;;;;;;;;;;;5052348;28;20008;-62
2024/02/02 05:36:18;;;;;;;;;;;;;;;;;;5036735;28;20309;-62
2024/02/02 05:38:44;;;;;;;;;;;;;;;;;;5050532;28;19964;-62
2024/02/02 05:41:10;;;;;;;;;;;;;;;;;;5035310;28;19979;-63
2024/02/02 05:43:36;;;;;;;;;;;;;;;;;;5028550;28;19947;-63
2024/02/02 05:46:01;;;;;;;;;;;;;;;;;;5053295;28;20590;-63
2024/02/02 05:48:27;;;;;;;;;;;;;;;;;;5053357;28;19963;-63
2024/02/02 05:50:53;;;;;;;;;;;;;;;;;;5035437;28;19928;-63
2024/02/02 05:53:19;;;;;;;;;;;;;;;;;;5053261;28;20374;-62
2024/02/02 05:55:45;;;;;;;;;;;;;;;;;;5036600;28;19925;-62
2024/02/02 05:58:11;;;;;;;;;;;;;;;;;;5051969;28;20409;-62
2024/02/02 06:00:37;;;;;;;;;;;;;;;;;;5049335;28;19998;-62
2024/02/02 06:03:03;;;;;;;;;;;;;;;;;;5052298;28;19928;-62
2024/02/02 06:05:32;;;;;;;;;;;;;;;;;;5033855;28;20528;-62
2024/02/02 06:07:58;;;;;;;;;;;;;;;;;;5052236;28;19925;-63
2024/02/02 06:10:24;;;;;;;;;;;;;;;;;;5051615;28;19920;-63
2024/02/02 06:12:50;;;;;;;;;;;;;;;;;;5051629;28;19921;-63
2024/02/02 06:15:16;;;;;;;;;;;;;;;;;;5029461;28;19933;-63
2024/02/02 06:17:42;;;;;;;;;;;;;;;;;;5033064;28;19955;-63
2024/02/02 06:20:08;;;;;;;;;;;;;;;;;;5052778;28;19921;-63
2024/02/02 06:22:34;;;;;;;;;;;;;;;;;;5056959;28;20330;-63
2024/02/02 06:25:00;;;;;;;;;;;;;;;;;;5033875;28;19925;-63
2024/02/02 06:27:27;;;;;;;;;;;;;;;;;;5051515;28;20001;-63
2024/02/02 06:29:53;;;;;;;;;;;;;;;;;;5034094;28;19921;-63
2024/02/02 06:32:21;;;;;;;;;;;;;;;;;;5049189;28;19928;-63
2024/02/02 06:34:50;;;;;;;;;;;;;;;;;;5059842;28;19969;-63
2024/02/02 06:37:15;;;;;;;;;;;;;;;;;;5051785;28;19951;-63
2024/02/02 06:39:41;;;;;;;;;;;;;;;;;;5051045;28;19944;-63
2024/02/02 06:42:07;;;;;;;;;;;;;;;;;;5049292;28;20366;-63
2024/02/02 06:44:35;;;;;;;;;;;;;;;;;;5047633;28;19955;-63
2024/02/02 06:47:01;;;;;;;;;;;;;;;;;;5047526;28;19925;-63
2024/02/02 06:49:27;;;;;;;;;;;;;;;;;;5047505;28;19924;-63
2024/02/02 06:51:53;;;;;;;;;;;;;;;;;;5050958;28;19927;-63
2024/02/02 06:54:19;;;;;;;;;;;;;;;;;;5047683;28;19924;-63
2024/02/02 06:56:46;;;;;;;;;;;;;;;;;;4987711;28;1799029;-63
2024/02/02 06:59:12;;;;;;;;;;;;;;;;;;5043552;28;20011;-63
2024/02/02 07:01:38;;;;;;;;;;;;;;;;;;5049130;28;20019;-63
2024/02/02 07:04:04;;;;;;;;;;;;;;;;;;5052422;28;19975;-63
2024/02/02 07:06:32;;;;;;;;;;;;;;;;;;5052941;28;19928;-63
2024/02/02 07:08:58;;;;;;;;;;;;;;;;;;5034548;28;19921;-63
2024/02/02 07:11:24;;;;;;;;;;;;;;;;;;5092262;22;19916;-66
2024/02/02 07:13:51;;;;;;;;;;;;;;;;;;5068792;28;19931;-68
2024/02/02 07:16:17;;;;;;;;;;;;;;;;;;5087680;28;20408;-67
2024/02/02 07:18:43;;;;;;;;;;;;;;;;;;5076895;28;19966;-67
2024/02/02 07:21:09;;;;;;;;;;;;;;;;;;5092706;28;19920;-67
2024/02/02 07:23:35;;;;;;;;;;;;;;;;;;5074126;28;19928;-67
2024/02/02 07:26:01;;;;;;;;;;;;;;;;;;5093816;28;19943;-67
2024/02/02 07:28:27;;;;;;;;;;;;;;;;;;5097617;28;19971;-68
2024/02/02 07:30:55;;;;;;;;;;;;;;;;;;5085255;28;19930;-68
2024/02/02 07:33:22;;;;;;;;;;;;;;;;;;5070755;28;20429;-69
2024/02/02 07:35:48;;;;;;;;;;;;;;;;;;5092258;28;19931;-68
2024/02/02 07:38:14;;;;;;;;;;;;;;;;;;5073715;28;19924;-68
2024/02/02 07:40:40;;;;;;;;;;;;;;;;;;5092428;28;20253;-68
2024/02/02 07:43:06;;;;;;;;;;;;;;;;;;5091756;28;20296;-69
2024/02/02 07:45:32;;;;;;;;;;;;;;;;;;5075824;28;20468;-67
2024/02/02 07:47:58;;;;;;;;;;;;;;;;;;5086708;28;20572;-68
2024/02/02 07:50:24;;;;;;;;;;;;;;;;;;5086487;28;19920;-68
2024/02/02 07:52:50;;;;;;;;;;;;;;;;;;5088913;28;19980;-67
2024/02/02 07:55:16;;;;;;;;;;;;;;;;;;5073467;28;19928;-67
2024/02/02 07:57:42;;;;;;;;;;;;;;;;;;5092292;28;19924;-69
2024/02/02 08:00:09;;;;;;;;;;;;;;;;;;5091821;28;20272;-68
2024/02/02 08:02:35;;;;;;;;;;;;;;;;;;5070422;28;19924;-68
2024/02/02 08:05:07;;;;;;;;;;;;;;;;;;5059641;28;19926;-68
2024/02/02 08:07:33;;;;;;;;;;;;;;;;;;5074389;28;19924;-68
2024/02/02 08:09:59;;;;;;;;;;;;;;;;;;5091375;28;20270;-68
2024/02/02 08:12:25;;;;;;;;;;;;;;;;;;5091101;28;20286;-68
2024/02/02 08:14:51;;;;;;;;;;;;;;;;;;5076009;28;19962;-68
2024/02/02 08:17:17;;;;;;;;;;;;;;;;;;5081670;28;19948;-68
2024/02/02 08:19:43;;;;;;;;;;;;;;;;;;5055128;28;19924;-68
2024/02/02 08:22:09;;;;;;;;;;;;;;;;;;5064391;28;19927;-68
2024/02/02 08:24:35;;;;;;;;;;;;;;;;;;5062248;28;19920;-67
2024/02/02 08:27:01;;;;;;;;;;;;;;;;;;5070784;28;20009;-67
2024/02/02 08:29:28;;;;;;;;;;;;;;;;;;5091572;28;20011;-67
2024/02/02 08:31:54;;;;;;;;;;;;;;;;;;5073052;28;19970;-67
2024/02/02 08:34:20;;;;;;;;;;;;;;;;;;5050353;28;19967;-67
2024/02/02 08:36:45;;;;;;;;;;;;;;;;;;5090233;28;19924;-67
2024/02/02 08:39:11;;;;;;;;;;;;;;;;;;5066865;28;20443;-68
2024/02/02 08:41:37;;;;;;;;;;;;;;;;;;5090723;28;20393;-67
2024/02/02 08:44:03;;;;;;;;;;;;;;;;;;5073464;28;20289;-67
2024/02/02 08:46:35;;;;;;;;;;;;;;;;;;5090880;28;19930;-68
2024/02/02 08:49:01;;;;;;;;;;;;;;;;;;5069920;28;19927;-68
2024/02/02 08:51:29;;;;;;;;;;;;;;;;;;5049338;28;19920;-68
2024/02/02 08:53:55;;;;;;;;;;;;;;;;;;5065846;28;20511;-68
2024/02/02 08:56:21;;;;;;;;;;;;;;;;;;5062335;28;19982;-68
2024/02/02 08:58:47;;;;;;;;;;;;;;;;;;5071229;28;19959;-68
2024/02/02 09:01:13;;;;;;;;;;;;;;;;;;5093571;28;19920;-69
2024/02/02 09:03:46;;;;;;;;;;;;;;;;;;5083622;28;20473;-68
2024/02/02 09:06:14;;;;;;;;;;;;;;;;;;5076758;28;19969;-68
2024/02/02 09:08:41;;;;;;;;;;;;;;;;;;5066039;28;20284;-68
2024/02/02 09:11:07;;;;;;;;;;;;;;;;;;5095253;28;19930;-67
2024/02/02 09:13:33;;;;;;;;;;;;;;;;;;5076656;28;19924;-67
2024/02/02 09:15:59;;;;;;;;;;;;;;;;;;5076540;28;20015;-68
2024/02/02 09:18:25;;;;;;;;;;;;;;;;;;5090679;28;20343;-68
2024/02/02 09:20:51;;;;;;;;;;;;;;;;;;5083487;28;19985;-67
2024/02/02 09:23:17;;;;;;;;;;;;;;;;;;5094890;28;20281;-68
2024/02/02 09:25:43;;;;;;;;;;;;;;;;;;5094787;28;19920;-69
2024/02/02 09:28:09;;;;;;;;;;;;;;;;;;5080901;28;19920;-67
2024/02/02 09:30:34;;;;;;;;;;;;;;;;;;5088542;28;20012;-67
2024/02/02 09:33:01;;;;;;;;;;;;;;;;;;5092395;28;19959;-68
2024/02/02 09:35:28;;;;;;;;;;;;;;;;;;5090048;28;20298;-67
2024/02/02 09:37:54;;;;;;;;;;;;;;;;;;5089452;28;19942;-67
2024/02/02 09:40:20;;;;;;;;;;;;;;;;;;5094135;28;20357;-67
2024/02/02 09:42:46;;;;;;;;;;;;;;;;;;5094317;28;19931;-69
2024/02/02 09:45:12;;;;;;;;;;;;;;;;;;5086923;28;19928;-69
2024/02/02 09:47:38;;;;;;;;;;;;;;;;;;5064427;28;19928;-67
2024/02/02 09:50:04;;;;;;;;;;;;;;;;;;5077587;28;19977;-68
2024/02/02 09:52:30;;;;;;;;;;;;;;;;;;5093113;28;19928;-65
2024/02/02 09:54:56;;;;;;;;;;;;;;;;;;5089155;28;19935;-68
2024/02/02 09:57:22;;;;;;;;;;;;;;;;;;5094442;28;19920;-67
2024/02/02 09:59:48;;;;;;;;;;;;;;;;;;5082409;28;20011;-68
2024/02/02 10:02:14;;;;;;;;;;;;;;;;;;5088364;28;19975;-68
2024/02/02 10:04:39;;;;;;;;;;;;;;;;;;5094386;28;19947;-68
2024/02/02 10:07:05;;;;;;;;;;;;;;;;;;5077091;28;20270;-68
2024/02/02 10:09:31;;;;;;;;;;;;;;;;;;5087372;28;20373;-68
2024/02/02 10:11:57;;;;;;;;;;;;;;;;;;5088440;28;19928;-67
2024/02/02 10:14:23;;;;;;;;;;;;;;;;;;5075154;28;19920;-67
2024/02/02 10:16:49;;;;;;;;;;;;;;;;;;5084807;28;20022;-67
2024/02/02 10:19:15;;;;;;;;;;;;;;;;;;5091947;28;20269;-68
2024/02/02 10:21:41;;;;;;;;;;;;;;;;;;5096898;28;19923;-66
2024/02/02 10:24:07;;;;;;;;;;;;;;;;;;5074319;28;19920;-66
2024/02/02 10:26:33;;;;;;;;;;;;;;;;;;5074167;28;19965;-65
2024/02/02 10:28:59;;;;;;;;;;;;;;;;;;5092474;28;20679;-65
2024/02/02 10:31:25;;;;;;;;;;;;;;;;;;5089476;28;19930;-65
2024/02/02 10:33:52;;;;;;;;;;;;;;;;;;5090774;28;20015;-65
2024/02/02 10:36:18;;;;;;;;;;;;;;;;;;5084730;28;19975;-66
2024/02/02 10:38:44;;;;;;;;;;;;;;;;;;5089165;28;19982;-66
2024/02/02 10:41:10;;;;;;;;;;;;;;;;;;5092967;28;19920;-66
2024/02/02 10:43:36;;;;;;;;;;;;;;;;;;5072527;28;19928;-66
2024/02/02 10:46:02;;;;;;;;;;;;;;;;;;5088393;28;19924;-67
2024/02/02 10:48:28;;;;;;;;;;;;;;;;;;5095514;28;19927;-67
2024/02/02 10:50:54;;;;;;;;;;;;;;;;;;5068882;28;19920;-67
2024/02/02 10:53:20;;;;;;;;;;;;;;;;;;5076750;28;19928;-66
2024/02/02 10:55:46;;;;;;;;;;;;;;;;;;5073746;28;19924;-66
2024/02/02 10:58:12;;;;;;;;;;;;;;;;;;5091382;28;19931;-66
2024/02/02 11:00:38;;;;;;;;;;;;;;;;;;5072261;28;19927;-66
2024/02/02 11:03:04;;;;;;;;;;;;;;;;;;5092730;28;20281;-66
2024/02/02 11:05:31;;;;;;;;;;;;;;;;;;5057224;28;19928;-65
2024/02/02 11:07:57;;;;;;;;;;;;;;;;;;5087232;28;20023;-65
2024/02/02 11:10:22;;;;;;;;;;;;;;;;;;5092837;28;20022;-65
2024/02/02 11:12:48;;;;;;;;;;;;;;;;;;5074036;28;19924;-65
2024/02/02 11:15:14;;;;;;;;;;;;;;;;;;5090981;28;20019;-65
2024/02/02 11:17:42;;;;;;;;;;;;;;;;;;5072511;28;19963;-65
2024/02/02 11:20:07;;;;;;;;;;;;;;;;;;5090696;28;20212;-65
2024/02/02 11:22:36;;;;;;;;;;;;;;;;;;5088763;28;20739;-66
2024/02/02 11:25:02;;;;;;;;;;;;;;;;;;5092159;28;19920;-66
2024/02/02 11:27:28;;;;;;;;;;;;;;;;;;5093137;28;19928;-66
2024/02/02 11:29:54;;;;;;;;;;;;;;;;;;5084782;28;20422;-66
2024/02/02 11:32:21;;;;;;;;;;;;;;;;;;5089438;28;19964;-65
2024/02/02 11:34:47;;;;;;;;;;;;;;;;;;5089359;28;20366;-65
2024/02/02 11:37:13;;;;;;;;;;;;;;;;;;5070586;28;19935;-66
2024/02/02 11:39:39;;;;;;;;;;;;;;;;;;5088113;28;19981;-66
2024/02/02 11:42:05;;;;;;;;;;;;;;;;;;5087813;28;19920;-66
2024/02/02 11:44:31;;;;;;;;;;;;;;;;;;5072308;28;19931;-66
2024/02/02 11:46:57;;;;;;;;;;;;;;;;;;5081545;28;19924;-66
2024/02/02 11:49:23;;;;;;;;;;;;;;;;;;5066159;28;19932;-66
2024/02/02 11:51:49;;;;;;;;;;;;;;;;;;5064529;28;19923;-66
2024/02/02 11:54:16;;;;;;;;;;;;;;;;;;5091657;28;19920;-66
2024/02/02 11:56:42;;;;;;;;;;;;;;;;;;5092077;28;19971;-66
2024/02/02 11:59:08;;;;;;;;;;;;;;;;;;5091763;28;19974;-66
2024/02/02 12:01:34;;;;;;;;;;;;;;;;;;5079385;28;19924;-66
2024/02/02 12:04:00;;;;;;;;;;;;;;;;;;5088754;28;20219;-66
2024/02/02 12:06:26;;;;;;;;;;;;;;;;;;5083522;28;19973;-66
2024/02/02 12:08:52;;;;;;;;;;;;;;;;;;5089173;28;19920;-67
2024/02/02 12:11:18;;;;;;;;;;;;;;;;;;5091468;28;19928;-67
2024/02/02 12:13:44;;;;;;;;;;;;;;;;;;5073244;28;19928;-67
2024/02/02 12:16:10;;;;;;;;;;;;;;;;;;5066066;28;20330;-66
2024/02/02 12:18:37;;;;;;;;;;;;;;;;;;5076293;28;20377;-67
2024/02/02 12:21:11;;;;;;;;;;;;;;;;;;5081694;28;19923;-67
2024/02/02 12:23:37;;;;;;;;;;;;;;;;;;5069738;28;19962;-67
2024/02/02 12:26:03;;;;;;;;;;;;;;;;;;5074058;28;19927;-68
2024/02/02 12:28:29;;;;;;;;;;;;;;;;;;5077044;28;19920;-67
2024/02/02 12:30:54;;;;;;;;;;;;;;;;;;5084966;28;19966;-67
2024/02/02 12:33:21;;;;;;;;;;;;;;;;;;5060847;28;19963;-67
2024/02/02 12:35:47;;;;;;;;;;;;;;;;;;5075491;28;20519;-67
2024/02/02 12:38:13;;;;;;;;;;;;;;;;;;5071025;28;19920;-66
2024/02/02 12:40:39;;;;;;;;;;;;;;;;;;5059134;28;19924;-67
2024/02/02 12:43:06;;;;;;;;;;;;;;;;;;5072814;28;19927;-67
2024/02/02 12:45:33;;;;;;;;;;;;;;;;;;5091515;28;19977;-67
2024/02/02 12:48:00;;;;;;;;;;;;;;;;;;5060248;28;19927;-67
2024/02/02 12:50:26;;;;;;;;;;;;;;;;;;5047415;28;19921;-66
2024/02/02 12:52:53;;;;;;;;;;;;;;;;;;5067223;28;20288;-66
2024/02/02 12:55:20;;;;;;;;;;;;;;;;;;5072616;28;19928;-67
2024/02/02 12:57:46;;;;;;;;;;;;;;;;;;5087610;28;19920;-66
2024/02/02 13:00:15;;;;;;;;;;;;;;;;;;5077591;28;19924;-66
2024/02/02 13:02:42;;;;;;;;;;;;;;;;;;5072809;28;19940;-66
2024/02/02 13:05:10;;;;;;;;;;;;;;;;;;5058426;28;20015;-67
2024/02/02 13:07:36;;;;;;;;;;;;;;;;;;5084096;28;19924;-67
2024/02/02 13:10:02;;;;;;;;;;;;;;;;;;5071934;28;19955;-67
2024/02/02 13:12:28;;;;;;;;;;;;;;;;;;5068087;28;19977;-67
2024/02/02 13:14:54;;;;;;;;;;;;;;;;;;5071614;28;19920;-65
2024/02/02 13:17:20;;;;;;;;;;;;;;;;;;5081687;28;20281;-66
2024/02/02 13:19:46;;;;;;;;;;;;;;;;;;5061289;28;20344;-65
2024/02/02 13:22:13;;;;;;;;;;;;;;;;;;5068007;28;19954;-66
2024/02/02 13:24:38;;;;;;;;;;;;;;;;;;5054433;28;19928;-66
2024/02/02 13:27:05;;;;;;;;;;;;;;;;;;5075788;28;20433;-67
2024/02/02 13:29:30;;;;;;;;;;;;;;;;;;5072631;28;19920;-67
2024/02/02 13:31:57;;;;;;;;;;;;;;;;;;5067036;28;19931;-67
2024/02/02 13:34:23;;;;;;;;;;;;;;;;;;5070401;28;20052;-67
2024/02/02 13:36:49;;;;;;;;;;;;;;;;;;5071384;28;20010;-67
2024/02/02 13:39:18;;;;;;;;;;;;;;;;;;5064979;28;20420;-67
2024/02/02 13:41:44;;;;;;;;;;;;;;;;;;5083449;28;19927;-67
2024/02/02 13:44:11;;;;;;;;;;;;;;;;;;5086739;28;19921;-67
2024/02/02 13:46:37;;;;;;;;;;;;;;;;;;5082551;28;19928;-67
2024/02/02 13:49:05;;;;;;;;;;;;;;;;;;5091121;28;19932;-67
2024/02/02 13:51:36;;;;;;;;;;;;;;;;;;5070626;28;20328;-66
2024/02/02 13:54:04;;;;;;;;;;;;;;;;;;5087471;28;20361;-66
2024/02/02 13:56:30;;;;;;;;;;;;;;;;;;5090942;28;19939;-64
2024/02/02 13:58:56;;;;;;;;;;;;;;;;;;5065484;28;23450;-64
2024/02/02 14:01:21;;;;;;;;;;;;;;;;;;5094330;28;19945;-65
2024/02/02 14:03:47;;;;;;;;;;;;;;;;;;5091008;28;19971;-65
2024/02/02 14:06:13;;;;;;;;;;;;;;;;;;5092938;28;19923;-66
2024/02/02 14:08:39;;;;;;;;;;;;;;;;;;5090687;28;19924;-66
2024/02/02 14:11:05;;;;;;;;;;;;;;;;;;5090614;28;19935;-65
2024/02/02 14:13:31;;;;;;;;;;;;;;;;;;5087579;28;19935;-66
2024/02/02 14:15:58;;;;;;;;;;;;;;;;;;5085951;28;20037;-66
2024/02/02 14:18:24;;;;;;;;;;;;;;;;;;5063888;28;20065;-67
2024/02/02 14:20:51;;;;;;;;;;;;;;;;;;5092547;28;19928;-67
2024/02/02 14:23:17;;;;;;;;;;;;;;;;;;5070651;28;19920;-66
2024/02/02 14:25:43;;;;;;;;;;;;;;;;;;5072414;28;19927;-66
2024/02/02 14:28:09;;;;;;;;;;;;;;;;;;5087961;28;19970;-66
2024/02/02 14:30:38;;;;;;;;;;;;;;;;;;5091428;28;19920;-66
2024/02/02 14:33:04;;;;;;;;;;;;;;;;;;5089286;28;20373;-66
2024/02/02 14:35:30;;;;;;;;;;;;;;;;;;5089687;28;19932;-66
2024/02/02 14:37:56;;;;;;;;;;;;;;;;;;5070795;28;19927;-67
2024/02/02 14:40:22;;;;;;;;;;;;;;;;;;5072760;28;19920;-67
2024/02/02 14:42:48;;;;;;;;;;;;;;;;;;5090880;28;19928;-67
2024/02/02 14:45:15;;;;;;;;;;;;;;;;;;5087367;28;19924;-66
2024/02/02 14:47:41;;;;;;;;;;;;;;;;;;5074727;28;19920;-66
2024/02/02 14:50:10;;;;;;;;;;;;;;;;;;5091817;28;20365;-66
2024/02/02 14:52:36;;;;;;;;;;;;;;;;;;5062588;28;19924;-66
2024/02/02 14:55:02;;;;;;;;;;;;;;;;;;5090895;28;19920;-66
2024/02/02 14:57:27;;;;;;;;;;;;;;;;;;5084766;28;20285;-66
2024/02/02 14:59:55;;;;;;;;;;;;;;;;;;5068900;28;20393;-66
2024/02/02 15:02:21;;;;;;;;;;;;;;;;;;5090381;28;19924;-66
2024/02/02 15:04:47;;;;;;;;;;;;;;;;;;5064252;28;20285;-66
2024/02/02 15:07:13;;;;;;;;;;;;;;;;;;5081031;28;19920;-67
2024/02/02 15:09:41;;;;;;;;;;;;;;;;;;5087651;28;19977;-66
2024/02/02 15:12:07;;;;;;;;;;;;;;;;;;5067750;28;20366;-67
2024/02/02 15:14:34;;;;;;;;;;;;;;;;;;5090597;28;19931;-66
2024/02/02 15:17:00;;;;;;;;;;;;;;;;;;5070679;28;20377;-66
2024/02/02 15:19:26;;;;;;;;;;;;;;;;;;5092426;28;19927;-66
2024/02/02 15:21:52;;;;;;;;;;;;;;;;;;5071934;28;19924;-66
2024/02/02 15:24:18;;;;;;;;;;;;;;;;;;5065128;28;19964;-66
2024/02/02 15:26:44;;;;;;;;;;;;;;;;;;5087408;28;20020;-66
2024/02/02 15:29:10;;;;;;;;;;;;;;;;;;5086293;28;19936;-66
2024/02/02 15:31:38;;;;;;;;;;;;;;;;;;5066739;28;20492;-66
2024/02/02 15:34:04;;;;;;;;;;;;;;;;;;5055159;28;19924;-67
2024/02/02 15:36:30;;;;;;;;;;;;;;;;;;5089329;28;19939;-66
2024/02/02 15:38:55;;;;;;;;;;;;;;;;;;5085000;28;19927;-67
2024/02/02 15:41:21;;;;;;;;;;;;;;;;;;5089388;28;19920;-65
2024/02/02 15:43:48;;;;;;;;;;;;;;;;;;5088834;28;19924;-66
2024/02/02 15:46:14;;;;;;;;;;;;;;;;;;5085630;28;19924;-65
2024/02/02 15:48:40;;;;;;;;;;;;;;;;;;5088727;28;19934;-66
2024/02/02 15:51:06;;;;;;;;;;;;;;;;;;5069165;28;20412;-66
2024/02/02 15:53:32;;;;;;;;;;;;;;;;;;5085462;28;19924;-66
2024/02/02 15:55:58;;;;;;;;;;;;;;;;;;5089375;28;19924;-66
2024/02/02 15:58:24;;;;;;;;;;;;;;;;;;5070596;28;20615;-66
2024/02/02 16:00:50;;;;;;;;;;;;;;;;;;5086821;28;19939;-66
2024/02/02 16:03:16;;;;;;;;;;;;;;;;;;5088385;28;19920;-66
2024/02/02 16:05:45;;;;;;;;;;;;;;;;;;5070464;28;20289;-66
2024/02/02 16:08:11;;;;;;;;;;;;;;;;;;5084356;28;19920;-66
2024/02/02 16:10:37;;;;;;;;;;;;;;;;;;5087646;28;19920;-67
2024/02/02 16:13:03;;;;;;;;;;;;;;;;;;5079901;28;19924;-67
2024/02/02 16:15:29;;;;;;;;;;;;;;;;;;5065731;28;19932;-67
2024/02/02 16:17:55;;;;;;;;;;;;;;;;;;5086754;28;19931;-67
2024/02/02 16:20:21;;;;;;;;;;;;;;;;;;5089717;28;19920;-65
2024/02/02 16:22:47;;;;;;;;;;;;;;;;;;5086624;28;19926;-66
2024/02/02 16:25:18;;;;;;;;;;;;;;;;;;5085574;28;19999;-66
2024/02/02 16:27:44;;;;;;;;;;;;;;;;;;5064594;28;20385;-65
2024/02/02 16:30:12;;;;;;;;;;;;;;;;;;5081379;28;19975;-65
2024/02/02 16:32:38;;;;;;;;;;;;;;;;;;5068848;28;20001;-66
2024/02/02 16:35:06;;;;;;;;;;;;;;;;;;5088381;28;20365;-65
2024/02/02 16:37:32;;;;;;;;;;;;;;;;;;5066585;28;19928;-65